Time,TemperatureF,DewpointF,PressureIn,WindDirection,WindDirectionDegrees,WindSpeedMPH,WindSpeedGustMPH,Humidity,HourlyPrecipIn,Conditions,Clouds,dailyrainin,SoftwareType,DateUTC
2013-02-09 00:04:00,14.9,12.2,29.67,NNW,332,2.0,2.0,89,0.00,,,0.00,Wunderground v.1.15,2013-02-09 05:04:00,
2013-02-09 00:09:00,14.9,12.2,29.67,NW,306,2.0,6.0,89,0.00,,,0.00,Wunderground v.1.15,2013-02-09 05:09:00,
2013-02-09 00:15:00,14.8,12.1,29.66,WNW,292,2.0,6.0,89,0.00,,,0.00,Wunderground v.1.15,2013-02-09 05:15:00,
2013-02-09 00:20:00,14.8,12.1,29.66,East,92,2.0,2.0,89,0.00,,,0.00,Wunderground v.1.15,2013-02-09 05:20:00,
2013-02-09 00:25:00,14.6,11.9,29.66,WNW,289,1.0,2.0,89,0.00,,,0.00,Wunderground v.1.15,2013-02-09 05:25:00,
2013-02-09 00:30:00,14.6,11.9,29.67,NE,37,2.0,2.0,89,0.00,,,0.00,Wunderground v.1.15,2013-02-09 05:30:00,
2013-02-09 00:40:00,14.6,12.2,29.67,NNE,21,1.0,2.0,90,0.00,,,0.00,Wunderground v.1.15,2013-02-09 05:40:00,
2013-02-09 00:45:00,14.4,12.0,29.66,SSE,168,1.0,4.0,90,0.00,,,0.00,Wunderground v.1.15,2013-02-09 05:45:00,
2013-02-09 00:50:00,14.4,12.0,29.66,NE,34,1.0,2.0,90,0.00,,,0.00,Wunderground v.1.15,2013-02-09 05:50:00,
2013-02-09 00:55:00,14.4,12.0,29.66,North,354,1.0,2.0,90,0.00,,,0.00,Wunderground v.1.15,2013-02-09 05:55:00,
2013-02-09 01:00:00,14.4,12.0,29.64,NNE,16,1.0,1.0,90,0.00,,,0.00,Wunderground v.1.15,2013-02-09 06:00:00,
2013-02-09 01:10:00,14.4,12.0,29.64,North,4,2.0,2.0,90,0.00,,,0.00,Wunderground v.1.15,2013-02-09 06:10:00,
2013-02-09 01:15:00,14.4,12.0,29.64,North,0,2.0,2.0,90,0.00,,,0.00,Wunderground v.1.15,2013-02-09 06:15:00,
2013-02-09 01:24:00,14.4,12.0,29.64,ENE,59,2.0,2.0,90,0.00,,,0.00,Wunderground v.1.15,2013-02-09 06:24:00,
2013-02-09 01:29:00,14.4,12.0,29.64,NNE,23,2.0,2.0,90,0.00,,,0.00,Wunderground v.1.15,2013-02-09 06:29:00,
2013-02-09 01:34:00,14.4,12.0,29.64,NNW,340,1.0,2.0,90,0.00,,,0.00,Wunderground v.1.15,2013-02-09 06:34:00,
2013-02-09 01:39:00,14.6,12.2,29.64,North,350,2.0,3.0,90,0.00,,,0.00,Wunderground v.1.15,2013-02-09 06:39:00,
2013-02-09 01:49:00,14.6,12.2,29.64,NNE,16,1.0,1.0,90,0.00,,,0.00,Wunderground v.1.15,2013-02-09 06:49:00,
2013-02-09 01:54:00,14.4,12.0,29.64,North,4,2.0,2.0,90,0.00,,,0.00,Wunderground v.1.15,2013-02-09 06:54:00,
2013-02-09 01:59:00,14.4,12.0,29.64,NNE,32,1.0,8.0,90,0.00,,,0.00,Wunderground v.1.15,2013-02-09 06:59:00,
2013-02-09 02:04:00,14.4,12.0,29.64,NNE,21,1.0,8.0,90,0.00,,,0.00,Wunderground v.1.15,2013-02-09 07:04:00,
2013-02-09 02:09:00,14.4,12.0,29.64,NE,45,1.0,8.0,90,0.00,,,0.00,Wunderground v.1.15,2013-02-09 07:09:00,
2013-02-09 02:19:00,14.6,12.2,29.63,NNW,342,1.0,1.0,90,0.00,,,0.00,Wunderground v.1.15,2013-02-09 07:19:00,
2013-02-09 02:24:00,14.6,12.2,29.63,North,0,2.0,2.0,90,0.00,,,0.00,Wunderground v.1.15,2013-02-09 07:24:00,
2013-02-09 02:29:00,14.6,12.2,29.63,North,359,1.0,8.0,90,0.00,,,0.00,Wunderground v.1.15,2013-02-09 07:29:00,
2013-02-09 02:34:00,14.6,12.2,29.63,NE,55,1.0,8.0,90,0.00,,,0.00,Wunderground v.1.15,2013-02-09 07:34:00,
2013-02-09 02:39:00,14.6,12.2,29.63,North,0,2.0,2.0,90,0.00,,,0.00,Wunderground v.1.15,2013-02-09 07:39:00,
2013-02-09 02:44:00,14.8,12.4,29.62,NNW,347,2.0,8.0,90,0.00,,,0.00,Wunderground v.1.15,2013-02-09 07:44:00,
2013-02-09 02:54:00,14.8,12.4,29.62,North,8,2.0,8.0,90,0.00,,,0.00,Wunderground v.1.15,2013-02-09 07:54:00,
2013-02-09 03:00:00,14.8,12.4,29.62,NE,48,1.0,8.0,90,0.00,,,0.00,Wunderground v.1.15,2013-02-09 08:00:00,
2013-02-09 03:09:00,14.8,12.4,29.62,NE,41,1.0,1.0,90,0.00,,,0.00,Wunderground v.1.15,2013-02-09 08:09:00,
2013-02-09 03:14:00,14.8,12.4,29.61,NNW,340,2.0,3.0,90,0.00,,,0.00,Wunderground v.1.15,2013-02-09 08:14:00,
2013-02-09 03:19:00,14.8,12.4,29.61,NNW,340,2.0,2.0,90,0.00,,,0.00,Wunderground v.1.15,2013-02-09 08:19:00,
2013-02-09 03:29:00,14.9,12.5,29.62,NE,37,1.0,1.0,90,0.00,,,0.00,Wunderground v.1.15,2013-02-09 08:29:00,
2013-02-09 03:34:00,14.9,12.5,29.62,NW,316,1.0,8.0,90,0.00,,,0.00,Wunderground v.1.15,2013-02-09 08:34:00,
2013-02-09 03:39:00,15.1,12.7,29.62,NNW,329,1.0,8.0,90,0.00,,,0.00,Wunderground v.1.15,2013-02-09 08:39:00,
2013-02-09 03:45:00,15.1,12.7,29.62,NNW,335,2.0,8.0,90,0.00,,,0.00,Wunderground v.1.15,2013-02-09 08:45:00,
2013-02-09 03:50:00,15.1,12.7,29.62,North,353,2.0,2.0,90,0.00,,,0.00,Wunderground v.1.15,2013-02-09 08:50:00,
2013-02-09 04:00:00,15.2,13.0,29.61,NNE,16,1.0,8.0,91,0.00,,,0.00,Wunderground v.1.15,2013-02-09 09:00:00,
2013-02-09 04:10:00,15.4,13.2,29.61,NW,325,1.0,1.0,91,0.00,,,0.00,Wunderground v.1.15,2013-02-09 09:10:00,
2013-02-09 04:15:00,15.4,13.2,29.61,NNE,14,1.0,8.0,91,0.00,,,0.00,Wunderground v.1.15,2013-02-09 09:15:00,
2013-02-09 04:20:00,15.6,13.4,29.61,East,90,1.0,1.0,91,0.00,,,0.00,Wunderground v.1.15,2013-02-09 09:20:00,
2013-02-09 04:29:00,15.7,13.5,29.59,SSW,192,1.0,8.0,91,0.00,,,0.00,Wunderground v.1.15,2013-02-09 09:29:00,
2013-02-09 04:35:00,15.7,13.5,29.59,NW,316,2.0,8.0,91,0.00,,,0.00,Wunderground v.1.15,2013-02-09 09:35:00,
2013-02-09 04:44:00,15.7,13.5,29.60,NW,306,1.0,8.0,91,0.00,,,0.00,Wunderground v.1.15,2013-02-09 09:44:00,
2013-02-09 04:49:00,15.9,13.7,29.60,NNE,30,1.0,8.0,91,0.00,,,0.00,Wunderground v.1.15,2013-02-09 09:49:00,
2013-02-09 04:54:00,15.9,13.7,29.60,ENE,58,2.0,8.0,91,0.00,,,0.00,Wunderground v.1.15,2013-02-09 09:54:00,
2013-02-09 04:59:00,15.9,13.7,29.62,SE,130,1.0,1.0,91,0.00,,,0.00,Wunderground v.1.15,2013-02-09 09:59:00,
2013-02-09 05:09:00,15.9,13.7,29.62,ENE,73,1.0,1.0,91,0.00,,,0.00,Wunderground v.1.15,2013-02-09 10:09:00,
2013-02-09 05:14:00,15.9,13.7,29.61,SE,130,1.0,3.0,91,0.00,,,0.00,Wunderground v.1.15,2013-02-09 10:14:00,
2013-02-09 05:19:00,15.9,13.7,29.61,NNE,16,2.0,2.0,91,0.00,,,0.00,Wunderground v.1.15,2013-02-09 10:19:00,
2013-02-09 05:24:00,16.1,13.9,29.61,WSW,244,1.0,8.0,91,0.00,,,0.00,Wunderground v.1.15,2013-02-09 10:24:00,
2013-02-09 05:29:00,16.1,13.9,29.61,NNE,23,1.0,1.0,91,0.00,,,0.00,Wunderground v.1.15,2013-02-09 10:29:00,
2013-02-09 05:34:00,16.1,13.9,29.61,North,0,1.0,8.0,91,0.00,,,0.00,Wunderground v.1.15,2013-02-09 10:34:00,
2013-02-09 05:44:00,16.4,14.2,29.62,North,0,1.0,8.0,91,0.00,,,0.00,Wunderground v.1.15,2013-02-09 10:44:00,
2013-02-09 05:49:00,16.4,14.2,29.62,ENE,62,1.0,8.0,91,0.00,,,0.00,Wunderground v.1.15,2013-02-09 10:49:00,
2013-02-09 05:54:00,16.5,14.3,29.62,NNW,335,1.0,8.0,91,0.00,,,0.00,Wunderground v.1.15,2013-02-09 10:54:00,
2013-02-09 05:59:00,16.5,14.6,29.62,North,8,0.0,8.0,92,0.00,,,0.00,Wunderground v.1.15,2013-02-09 10:59:00,
2013-02-09 06:04:00,16.7,14.8,29.62,NNW,332,0.0,8.0,92,0.00,,,0.00,Wunderground v.1.15,2013-02-09 11:04:00,
2013-02-09 06:14:00,16.9,15.0,29.62,NNE,13,1.0,8.0,92,0.00,,,0.00,Wunderground v.1.15,2013-02-09 11:14:00,
2013-02-09 06:19:00,17.2,15.3,29.62,NE,38,1.0,8.0,92,0.00,,,0.00,Wunderground v.1.15,2013-02-09 11:19:00,
2013-02-09 06:24:00,17.2,15.3,29.62,North,0,1.0,8.0,92,0.00,,,0.00,Wunderground v.1.15,2013-02-09 11:24:00,
2013-02-09 06:29:00,17.3,15.4,29.63,SE,133,1.0,1.0,92,0.00,,,0.00,Wunderground v.1.15,2013-02-09 11:29:00,
2013-02-09 06:34:00,17.3,15.4,29.63,East,100,1.0,8.0,92,0.00,,,0.00,Wunderground v.1.15,2013-02-09 11:34:00,
2013-02-09 06:40:00,17.3,15.4,29.63,NNE,30,0.0,8.0,92,0.00,,,0.00,Wunderground v.1.15,2013-02-09 11:40:00,
2013-02-09 06:49:00,17.3,15.4,29.65,WNW,282,0.0,8.0,92,0.00,,,0.00,Wunderground v.1.15,2013-02-09 11:49:00,
2013-02-09 06:54:00,17.3,15.4,29.65,WNW,298,0.0,8.0,92,0.00,,,0.00,Wunderground v.1.15,2013-02-09 11:54:00,
2013-02-09 07:00:00,17.3,15.4,29.66,NE,42,1.0,8.0,92,0.00,,,0.00,Wunderground v.1.15,2013-02-09 12:00:00,
2013-02-09 07:05:00,17.5,15.6,29.66,North,356,1.0,8.0,92,0.00,,,0.00,Wunderground v.1.15,2013-02-09 12:05:00,
2013-02-09 07:10:00,17.5,15.6,29.66,SE,130,1.0,1.0,92,0.00,,,0.00,Wunderground v.1.15,2013-02-09 12:10:00,
2013-02-09 07:20:00,17.7,15.8,29.67,NW,323,0.0,8.0,92,0.00,,,0.00,Wunderground v.1.15,2013-02-09 12:20:00,
2013-02-09 07:25:00,17.7,15.8,29.67,North,8,1.0,8.0,92,0.00,,,0.00,Wunderground v.1.15,2013-02-09 12:25:00,
2013-02-09 07:30:00,17.8,15.9,29.67,North,10,1.0,1.0,92,0.00,,,0.00,Wunderground v.1.15,2013-02-09 12:30:00,
2013-02-09 07:35:00,18.0,16.1,29.67,NNE,24,1.0,8.0,92,0.00,,,0.00,Wunderground v.1.15,2013-02-09 12:35:00,
2013-02-09 07:44:00,18.1,16.2,29.67,NNE,13,1.0,8.0,92,0.00,,,0.00,Wunderground v.1.15,2013-02-09 12:44:00,
2013-02-09 07:50:00,18.3,16.4,29.67,SSE,167,1.0,1.0,92,0.00,,,0.00,Wunderground v.1.15,2013-02-09 12:50:00,
2013-02-09 07:55:00,18.4,16.7,29.67,East,85,1.0,8.0,93,0.00,,,0.00,Wunderground v.1.15,2013-02-09 12:55:00,
2013-02-09 08:04:00,18.6,16.9,29.68,NNE,17,1.0,8.0,93,0.00,,,0.00,Wunderground v.1.15,2013-02-09 13:04:00,
2013-02-09 08:09:00,18.6,16.9,29.68,North,0,1.0,1.0,93,0.00,,,0.00,Wunderground v.1.15,2013-02-09 13:09:00,
2013-02-09 08:14:00,18.8,17.1,29.68,NW,318,1.0,8.0,93,0.00,,,0.00,Wunderground v.1.15,2013-02-09 13:14:00,
2013-02-09 08:19:00,18.8,17.1,29.68,SE,137,1.0,1.0,93,0.00,,,0.00,Wunderground v.1.15,2013-02-09 13:19:00,
2013-02-09 08:29:00,19.1,17.4,29.69,North,0,1.0,8.0,93,0.00,,,0.00,Wunderground v.1.15,2013-02-09 13:29:00,
2013-02-09 08:34:00,19.2,17.5,29.69,ENE,59,0.0,8.0,93,0.00,,,0.00,Wunderground v.1.15,2013-02-09 13:34:00,
2013-02-09 08:39:00,19.2,17.5,29.69,NE,56,0.0,8.0,93,0.00,,,0.00,Wunderground v.1.15,2013-02-09 13:39:00,
2013-02-09 08:44:00,19.4,17.7,29.69,North,11,0.0,8.0,93,0.00,,,0.00,Wunderground v.1.15,2013-02-09 13:44:00,
2013-02-09 08:49:00,19.4,17.7,29.69,NNW,344,0.0,8.0,93,0.00,,,0.00,Wunderground v.1.15,2013-02-09 13:49:00,
2013-02-09 08:59:00,19.5,17.8,29.70,SSW,205,0.0,8.0,93,0.00,,,0.00,Wunderground v.1.15,2013-02-09 13:59:00,
2013-02-09 09:04:00,19.4,17.7,29.70,East,97,0.0,8.0,93,0.00,,,0.00,Wunderground v.1.15,2013-02-09 14:04:00,
2013-02-09 09:09:00,19.1,17.2,29.70,East,86,0.0,8.0,92,0.00,,,0.00,Wunderground v.1.15,2013-02-09 14:09:00,
2013-02-09 09:15:00,18.9,17.0,29.71,NW,311,0.0,8.0,92,0.00,,,0.00,Wunderground v.1.15,2013-02-09 14:15:00,
2013-02-09 09:20:00,18.8,16.6,29.71,NE,54,0.0,8.0,91,0.00,,,0.00,Wunderground v.1.15,2013-02-09 14:20:00,
2013-02-09 09:25:00,18.3,16.1,29.71,SE,128,0.0,8.0,91,0.00,,,0.00,Wunderground v.1.15,2013-02-09 14:25:00,
2013-02-09 09:35:00,17.8,15.4,29.72,East,96,0.0,8.0,90,0.00,,,0.00,Wunderground v.1.15,2013-02-09 14:35:00,
2013-02-09 09:40:00,17.7,15.3,29.72,ESE,112,0.0,8.0,90,0.00,,,0.00,Wunderground v.1.15,2013-02-09 14:40:00,
2013-02-09 09:45:00,17.5,15.1,29.73,SSE,155,0.0,8.0,90,0.00,,,0.00,Wunderground v.1.15,2013-02-09 14:45:00,
2013-02-09 09:54:00,17.2,14.8,29.73,SE,126,0.0,8.0,90,0.00,,,0.00,Wunderground v.1.15,2013-02-09 14:54:00,
2013-02-09 09:59:00,17.0,14.6,29.74,NE,45,0.0,8.0,90,0.00,,,0.00,Wunderground v.1.15,2013-02-09 14:59:00,
2013-02-09 10:09:00,16.9,14.5,29.74,NE,52,1.0,8.0,90,0.00,,,0.00,Wunderground v.1.15,2013-02-09 15:09:00,
2013-02-09 10:14:00,17.0,14.6,29.74,West,260,1.0,8.0,90,0.00,,,0.00,Wunderground v.1.15,2013-02-09 15:14:00,
2013-02-09 10:19:00,17.0,14.6,29.74,ENE,65,1.0,1.0,90,0.00,,,0.00,Wunderground v.1.15,2013-02-09 15:19:00,
2013-02-09 10:25:00,17.0,14.6,29.74,West,268,0.0,8.0,90,0.00,,,0.00,Wunderground v.1.15,2013-02-09 15:25:00,
2013-02-09 10:35:00,17.2,14.8,29.75,NE,49,0.0,8.0,90,0.00,,,0.00,Wunderground v.1.15,2013-02-09 15:35:00,
2013-02-09 10:40:00,17.2,14.8,29.75,East,86,0.0,8.0,90,0.00,,,0.00,Wunderground v.1.15,2013-02-09 15:40:00,
2013-02-09 10:45:00,17.2,14.8,29.75,East,86,3.0,8.0,90,0.00,,,0.00,Wunderground v.1.15,2013-02-09 15:45:00,
2013-02-09 10:50:00,-999.9,-99.9,29.75,North,32767,-999.0,8.0,255,-99.99,,,0.00,Wunderground v.1.15,2013-02-09 15:50:00,
2013-02-09 10:55:00,-999.9,-99.9,29.75,North,32767,-999.0,8.0,255,-99.99,,,0.00,Wunderground v.1.15,2013-02-09 15:55:00,
2013-02-09 11:05:00,-999.9,-99.9,29.76,North,32767,-999.0,8.0,255,-99.99,,,0.00,Wunderground v.1.15,2013-02-09 16:05:00,
2013-02-09 11:10:00,-999.9,-99.9,29.76,North,32767,-999.0,8.0,255,-99.99,,,0.00,Wunderground v.1.15,2013-02-09 16:10:00,
2013-02-09 11:15:00,-999.9,-99.9,29.76,North,32767,-999.0,8.0,255,-99.99,,,0.00,Wunderground v.1.15,2013-02-09 16:15:00,
2013-02-09 11:20:00,-999.9,-99.9,29.76,North,32767,-999.0,8.0,255,-99.99,,,0.00,Wunderground v.1.15,2013-02-09 16:20:00,
2013-02-09 11:25:00,-999.9,-99.9,29.76,North,32767,-999.0,8.0,255,-99.99,,,0.00,Wunderground v.1.15,2013-02-09 16:25:00,
2013-02-09 11:35:00,-999.9,-99.9,29.76,North,32767,-999.0,8.0,255,-99.99,,,0.00,Wunderground v.1.15,2013-02-09 16:35:00,
2013-02-09 11:40:00,-999.9,-99.9,29.76,North,32767,-999.0,8.0,255,-99.99,,,0.00,Wunderground v.1.15,2013-02-09 16:40:00,
2013-02-09 11:45:00,-999.9,-99.9,29.77,North,32767,-999.0,8.0,255,-99.99,,,0.00,Wunderground v.1.15,2013-02-09 16:45:00,
2013-02-09 11:50:00,-999.9,-99.9,29.77,North,6,0.0,8.0,255,0.00,,,0.00,Wunderground v.1.15,2013-02-09 16:50:00,
2013-02-09 11:55:00,17.8,-99.9,29.77,WSW,247,0.0,8.0,255,0.00,,,0.00,Wunderground v.1.15,2013-02-09 16:55:00,
2013-02-09 12:00:00,17.8,-99.9,29.77,WSW,247,0.0,8.0,255,0.00,,,0.00,Wunderground v.1.15,2013-02-09 17:00:00,
2013-02-09 12:10:00,18.0,-99.9,29.77,SE,130,2.0,8.0,255,0.00,,,0.00,Wunderground v.1.15,2013-02-09 17:10:00,
2013-02-09 12:15:00,18.0,-99.9,29.77,NW,319,0.0,8.0,255,0.00,,,0.00,Wunderground v.1.15,2013-02-09 17:15:00,
2013-02-09 12:20:00,18.0,-99.9,29.77,SE,131,1.0,8.0,255,0.00,,,0.00,Wunderground v.1.15,2013-02-09 17:20:00,
2013-02-09 12:25:00,18.0,-99.9,29.77,South,179,0.0,8.0,255,0.00,,,0.00,Wunderground v.1.15,2013-02-09 17:25:00,
2013-02-09 12:30:00,18.1,-99.9,29.78,East,79,1.0,8.0,255,0.00,,,0.00,Wunderground v.1.15,2013-02-09 17:30:00,
2013-02-09 12:40:00,18.1,14.4,29.78,ENE,72,2.0,8.0,85,0.00,,,0.00,Wunderground v.1.15,2013-02-09 17:40:00,
2013-02-09 12:45:00,18.1,14.4,29.79,South,184,0.0,8.0,85,0.00,,,0.00,Wunderground v.1.15,2013-02-09 17:45:00,
2013-02-09 12:50:00,18.1,14.4,29.79,SSE,148,0.0,8.0,85,0.00,,,0.00,Wunderground v.1.15,2013-02-09 17:50:00,
2013-02-09 12:55:00,18.1,14.4,29.79,NNE,31,0.0,8.0,85,0.00,,,0.00,Wunderground v.1.15,2013-02-09 17:55:00,
2013-02-09 13:05:00,19.2,15.4,29.80,NE,49,0.0,8.0,85,0.00,,,0.00,Wunderground v.1.15,2013-02-09 18:05:00,
2013-02-09 13:15:00,19.4,15.1,29.81,ESE,102,1.0,8.0,83,0.00,,,0.00,Wunderground v.1.15,2013-02-09 18:15:00,
2013-02-09 13:20:00,19.4,15.1,29.81,SSE,165,1.0,1.0,83,0.00,,,0.00,Wunderground v.1.15,2013-02-09 18:20:00,
2013-02-09 13:25:00,19.5,14.9,29.81,NNE,18,1.0,8.0,82,0.00,,,0.00,Wunderground v.1.15,2013-02-09 18:25:00,
2013-02-09 13:30:00,19.5,14.9,29.81,NE,49,1.0,8.0,82,0.00,,,0.00,Wunderground v.1.15,2013-02-09 18:30:00,
2013-02-09 13:35:00,19.5,14.9,29.81,West,270,1.0,8.0,82,0.00,,,0.00,Wunderground v.1.15,2013-02-09 18:35:00,
2013-02-09 13:40:00,19.7,15.1,29.81,SSW,213,1.0,1.0,82,0.00,,,0.00,Wunderground v.1.15,2013-02-09 18:40:00,
2013-02-09 13:50:00,19.9,15.3,29.82,SSW,200,0.0,8.0,82,0.00,,,0.00,Wunderground v.1.15,2013-02-09 18:50:00,
2013-02-09 13:55:00,19.9,14.7,29.82,SE,137,0.0,8.0,80,0.00,,,0.00,Wunderground v.1.15,2013-02-09 18:55:00,
2013-02-09 14:00:00,19.9,14.7,29.83,ESE,109,1.0,1.0,80,0.00,,,0.00,Wunderground v.1.15,2013-02-09 19:00:00,
2013-02-09 14:05:00,19.9,14.7,29.83,NW,318,1.0,3.0,80,0.00,,,0.00,Wunderground v.1.15,2013-02-09 19:05:00,
2013-02-09 14:10:00,20.3,15.1,29.83,NE,51,1.0,1.0,80,0.00,,,0.00,Wunderground v.1.15,2013-02-09 19:10:00,
2013-02-09 14:20:00,20.5,15.3,29.84,North,349,0.0,8.0,80,0.00,,,0.00,Wunderground v.1.15,2013-02-09 19:20:00,
2013-02-09 14:25:00,20.5,14.4,29.84,WSW,254,1.0,8.0,77,0.00,,,0.00,Wunderground v.1.15,2013-02-09 19:25:00,
2013-02-09 14:30:00,20.5,14.4,29.85,SE,136,1.0,1.0,77,0.00,,,0.00,Wunderground v.1.15,2013-02-09 19:30:00,
2013-02-09 14:35:00,20.6,14.5,29.85,ESE,119,0.0,8.0,77,0.00,,,0.00,Wunderground v.1.15,2013-02-09 19:35:00,
2013-02-09 14:40:00,20.8,14.7,29.85,SE,140,0.0,8.0,77,0.00,,,0.00,Wunderground v.1.15,2013-02-09 19:40:00,
2013-02-09 14:50:00,20.8,14.7,29.86,SE,126,0.0,8.0,77,0.00,,,0.00,Wunderground v.1.15,2013-02-09 19:50:00,
2013-02-09 14:55:00,20.8,14.7,29.86,SSW,212,1.0,8.0,77,0.00,,,0.00,Wunderground v.1.15,2013-02-09 19:55:00,
2013-02-09 15:00:00,20.8,14.7,29.87,East,100,1.0,8.0,77,0.00,,,0.00,Wunderground v.1.15,2013-02-09 20:00:00,
2013-02-09 15:05:00,20.6,14.5,29.87,NNE,21,1.0,8.0,77,0.00,,,0.00,Wunderground v.1.15,2013-02-09 20:05:00,
2013-02-09 15:10:00,20.6,14.5,29.87,East,89,0.0,8.0,77,0.00,,,0.00,Wunderground v.1.15,2013-02-09 20:10:00,
2013-02-09 15:15:00,20.6,13.9,29.89,SSE,167,0.0,8.0,75,0.00,,,0.00,Wunderground v.1.15,2013-02-09 20:15:00,
2013-02-09 15:25:00,20.3,13.6,29.89,SSW,198,0.0,8.0,75,0.00,,,0.00,Wunderground v.1.15,2013-02-09 20:25:00,
2013-02-09 15:30:00,20.2,13.5,29.90,North,359,0.0,8.0,75,0.00,,,0.00,Wunderground v.1.15,2013-02-09 20:30:00,
2013-02-09 15:35:00,20.2,13.5,29.90,North,0,0.0,8.0,75,0.00,,,0.00,Wunderground v.1.15,2013-02-09 20:35:00,
2013-02-09 15:40:00,20.2,13.5,29.90,North,0,0.0,8.0,75,0.00,,,0.00,Wunderground v.1.15,2013-02-09 20:40:00,
2013-02-09 15:45:00,-999.9,-99.9,29.91,North,32767,-999.0,8.0,255,-99.99,,,0.00,Wunderground v.1.15,2013-02-09 20:45:00,
2013-02-09 15:50:00,-999.9,-99.9,29.91,North,32767,-999.0,8.0,255,-99.99,,,0.00,Wunderground v.1.15,2013-02-09 20:50:00,
2013-02-09 16:00:00,-999.9,-99.9,29.92,North,32767,-999.0,8.0,255,-99.99,,,0.00,Wunderground v.1.15,2013-02-09 21:00:00,
2013-02-09 16:05:00,-999.9,-99.9,29.92,North,32767,-999.0,8.0,255,-99.99,,,0.00,Wunderground v.1.15,2013-02-09 21:05:00,
2013-02-09 16:10:00,-999.9,-99.9,29.92,North,32767,-999.0,8.0,255,-99.99,,,0.00,Wunderground v.1.15,2013-02-09 21:10:00,
2013-02-09 16:15:00,-999.9,-99.9,29.93,North,32767,-999.0,8.0,255,-99.99,,,0.00,Wunderground v.1.15,2013-02-09 21:15:00,
2013-02-09 16:25:00,-999.9,-99.9,29.93,North,32767,-999.0,8.0,255,-99.99,,,0.00,Wunderground v.1.15,2013-02-09 21:25:00,
2013-02-09 16:30:00,-999.9,-99.9,29.94,North,32767,-999.0,8.0,255,-99.99,,,0.00,Wunderground v.1.15,2013-02-09 21:30:00,
2013-02-09 16:35:00,-999.9,-99.9,29.94,North,32767,-999.0,8.0,255,-99.99,,,0.00,Wunderground v.1.15,2013-02-09 21:35:00,
2013-02-09 16:40:00,-999.9,-99.9,29.94,North,32767,-999.0,8.0,255,-99.99,,,0.00,Wunderground v.1.15,2013-02-09 21:40:00,
2013-02-09 16:50:00,-999.9,-99.9,29.95,North,32767,-999.0,8.0,255,-99.99,,,0.00,Wunderground v.1.15,2013-02-09 21:50:00,
2013-02-09 16:55:00,-999.9,-99.9,29.95,North,32767,-999.0,8.0,255,-99.99,,,0.00,Wunderground v.1.15,2013-02-09 21:55:00,
2013-02-09 17:00:00,-999.9,-99.9,29.96,North,32767,-999.0,8.0,255,-99.99,,,0.00,Wunderground v.1.15,2013-02-09 22:00:00,
2013-02-09 17:10:00,-999.9,-99.9,29.96,North,32767,-999.0,8.0,255,-99.99,,,0.00,Wunderground v.1.15,2013-02-09 22:10:00,
2013-02-09 17:15:00,-999.9,-99.9,29.96,North,32767,-999.0,8.0,255,-99.99,,,0.00,Wunderground v.1.15,2013-02-09 22:15:00,
2013-02-09 17:20:00,-999.9,-99.9,29.96,North,32767,-999.0,8.0,255,-99.99,,,0.00,Wunderground v.1.15,2013-02-09 22:20:00,
2013-02-09 17:25:00,-999.9,-99.9,29.96,North,32767,-999.0,8.0,255,-99.99,,,0.00,Wunderground v.1.15,2013-02-09 22:25:00,
2013-02-09 17:30:00,-999.9,-99.9,29.98,North,32767,-999.0,8.0,255,-99.99,,,0.00,Wunderground v.1.15,2013-02-09 22:30:00,
2013-02-09 17:40:00,-999.9,-99.9,29.98,North,32767,-999.0,8.0,255,-99.99,,,0.00,Wunderground v.1.15,2013-02-09 22:40:00,
2013-02-09 17:45:00,-999.9,-99.9,29.99,North,32767,-999.0,8.0,255,-99.99,,,0.00,Wunderground v.1.15,2013-02-09 22:45:00,
2013-02-09 17:50:00,-999.9,-99.9,29.99,North,32767,-999.0,8.0,255,-99.99,,,0.00,Wunderground v.1.15,2013-02-09 22:50:00,
2013-02-09 17:55:00,-999.9,-99.9,29.99,North,32767,-999.0,8.0,255,-99.99,,,0.00,Wunderground v.1.15,2013-02-09 22:55:00,
2013-02-09 18:00:00,-999.9,-99.9,30.00,North,32767,-999.0,8.0,255,-99.99,,,0.00,Wunderground v.1.15,2013-02-09 23:00:00,
2013-02-09 18:05:00,-999.9,-99.9,30.00,North,32767,-999.0,8.0,255,-99.99,,,0.00,Wunderground v.1.15,2013-02-09 23:05:00,
2013-02-09 18:10:00,-999.9,-99.9,30.00,North,32767,-999.0,8.0,255,-99.99,,,0.00,Wunderground v.1.15,2013-02-09 23:10:00,
2013-02-09 18:15:00,-999.9,-99.9,30.01,North,32767,-999.0,8.0,255,-99.99,,,0.00,Wunderground v.1.15,2013-02-09 23:15:00,
2013-02-09 18:20:00,17.2,10.3,30.01,North,0,0.0,8.0,74,0.00,,,0.00,Wunderground v.1.15,2013-02-09 23:20:00,
2013-02-09 18:25:00,17.0,10.4,30.01,West,271,0.0,8.0,75,0.00,,,0.00,Wunderground v.1.15,2013-02-09 23:25:00,
2013-02-09 18:30:00,16.9,10.0,30.02,NW,313,0.0,8.0,74,0.00,,,0.00,Wunderground v.1.15,2013-02-09 23:30:00,
2013-02-09 18:35:00,16.7,10.1,30.02,NNE,16,0.0,8.0,75,0.00,,,0.00,Wunderground v.1.15,2013-02-09 23:35:00,
2013-02-09 18:45:00,16.5,10.0,30.03,NW,319,0.0,8.0,75,0.00,,,0.00,Wunderground v.1.15,2013-02-09 23:45:00,
2013-02-09 18:50:00,16.4,9.9,30.03,SSW,192,0.0,8.0,75,0.00,,,0.00,Wunderground v.1.15,2013-02-09 23:50:00,
2013-02-09 18:55:00,16.4,9.3,30.03,NE,56,0.0,8.0,73,0.00,,,0.00,Wunderground v.1.15,2013-02-09 23:55:00,
2013-02-09 19:05:00,16.2,9.1,30.03,East,83,0.0,8.0,73,0.00,,,0.00,Wunderground v.1.15,2013-02-10 00:05:00,
2013-02-09 19:10:00,16.2,8.8,30.03,NW,315,0.0,8.0,72,0.00,,,0.00,Wunderground v.1.15,2013-02-10 00:10:00,
2013-02-09 19:15:00,16.1,9.0,30.04,West,260,0.0,8.0,73,0.00,,,0.00,Wunderground v.1.15,2013-02-10 00:15:00,
2013-02-09 19:20:00,16.1,9.0,30.04,ENE,69,0.0,8.0,73,0.00,,,0.00,Wunderground v.1.15,2013-02-10 00:20:00,
2013-02-09 19:30:00,15.9,8.5,30.05,ENE,69,0.0,8.0,72,0.00,,,0.00,Wunderground v.1.15,2013-02-10 00:30:00,
2013-02-09 19:35:00,15.7,8.3,30.05,WNW,301,0.0,8.0,72,0.00,,,0.00,Wunderground v.1.15,2013-02-10 00:35:00,
2013-02-09 19:40:00,15.6,8.8,30.05,WSW,241,0.0,8.0,74,0.00,,,0.00,Wunderground v.1.15,2013-02-10 00:40:00,
2013-02-09 19:50:00,15.2,8.1,30.06,West,278,0.0,8.0,73,0.00,,,0.00,Wunderground v.1.15,2013-02-10 00:50:00,
2013-02-09 19:55:00,15.1,8.0,30.06,SSW,212,0.0,8.0,73,0.00,,,0.00,Wunderground v.1.15,2013-02-10 00:55:00,
2013-02-09 20:00:00,14.9,7.8,30.06,ENE,69,0.0,8.0,73,0.00,,,0.00,Wunderground v.1.15,2013-02-10 01:00:00,
2013-02-09 20:05:00,14.9,7.2,30.06,SSE,151,1.0,8.0,71,0.00,,,0.00,Wunderground v.1.15,2013-02-10 01:05:00,
2013-02-09 20:10:00,14.9,7.2,30.06,ESE,119,1.0,1.0,71,0.00,,,0.00,Wunderground v.1.15,2013-02-10 01:10:00,
2013-02-09 20:15:00,14.8,6.8,30.06,ESE,121,0.0,8.0,70,0.00,,,0.00,Wunderground v.1.15,2013-02-10 01:15:00,
2013-02-09 20:25:00,14.6,6.9,30.06,SE,130,0.0,8.0,71,0.00,,,0.00,Wunderground v.1.15,2013-02-10 01:25:00,
2013-02-09 20:30:00,14.6,6.6,30.07,East,92,0.0,8.0,70,0.00,,,0.00,Wunderground v.1.15,2013-02-10 01:30:00,
2013-02-09 20:35:00,14.3,6.6,30.07,SE,145,0.0,8.0,71,0.00,,,0.00,Wunderground v.1.15,2013-02-10 01:35:00,
2013-02-09 20:40:00,14.3,6.3,30.07,North,0,0.0,8.0,70,0.00,,,0.00,Wunderground v.1.15,2013-02-10 01:40:00,
2013-02-09 20:45:00,14.1,6.1,30.08,East,79,0.0,8.0,70,0.00,,,0.00,Wunderground v.1.15,2013-02-10 01:45:00,
2013-02-09 20:55:00,14.1,5.8,30.08,ESE,121,1.0,8.0,69,0.00,,,0.00,Wunderground v.1.15,2013-02-10 01:55:00,
2013-02-09 21:00:00,14.1,6.1,30.09,ENE,61,0.0,8.0,70,0.00,,,0.00,Wunderground v.1.15,2013-02-10 02:00:00,
2013-02-09 21:05:00,14.0,6.0,30.09,NNE,31,0.0,8.0,70,0.00,,,0.00,Wunderground v.1.15,2013-02-10 02:05:00,
2013-02-09 21:10:00,14.0,5.7,30.09,SE,136,1.0,1.0,69,0.00,,,0.00,Wunderground v.1.15,2013-02-10 02:10:00,
2013-02-09 21:15:00,13.8,5.8,30.10,ESE,103,1.0,8.0,70,0.00,,,0.00,Wunderground v.1.15,2013-02-10 02:15:00,
2013-02-09 21:20:00,13.8,5.5,30.10,East,99,1.0,1.0,69,0.00,,,0.00,Wunderground v.1.15,2013-02-10 02:20:00,
2013-02-09 21:30:00,13.5,5.2,30.10,East,86,0.0,8.0,69,0.00,,,0.00,Wunderground v.1.15,2013-02-10 02:30:00,
2013-02-09 21:35:00,13.5,5.5,30.10,East,88,0.0,8.0,70,0.00,,,0.00,Wunderground v.1.15,2013-02-10 02:35:00,
2013-02-09 21:40:00,13.3,4.7,30.10,East,88,0.0,8.0,68,0.00,,,0.00,Wunderground v.1.15,2013-02-10 02:40:00,
2013-02-09 21:45:00,13.3,4.7,30.10,East,95,0.0,8.0,68,0.00,,,0.00,Wunderground v.1.15,2013-02-10 02:45:00,
2013-02-09 21:50:00,13.3,5.0,30.10,ENE,58,0.0,8.0,69,0.00,,,0.00,Wunderground v.1.15,2013-02-10 02:50:00,
2013-02-09 22:00:00,13.1,4.8,30.10,SSW,213,0.0,8.0,69,0.00,,,0.00,Wunderground v.1.15,2013-02-10 03:00:00,
2013-02-09 22:05:00,13.1,3.9,30.10,ESE,102,0.0,8.0,66,0.00,,,0.00,Wunderground v.1.15,2013-02-10 03:05:00,
2013-02-09 22:10:00,13.1,4.5,30.10,SE,133,0.0,8.0,68,0.00,,,0.00,Wunderground v.1.15,2013-02-10 03:10:00,
2013-02-09 22:15:00,12.9,4.3,30.11,ESE,110,0.0,8.0,68,0.00,,,0.00,Wunderground v.1.15,2013-02-10 03:15:00,
2013-02-09 22:25:00,12.8,4.9,30.11,ENE,66,0.0,8.0,70,0.00,,,0.00,Wunderground v.1.15,2013-02-10 03:25:00,
2013-02-09 22:30:00,12.6,4.7,30.11,SW,220,0.0,8.0,70,0.00,,,0.00,Wunderground v.1.15,2013-02-10 03:30:00,
2013-02-09 22:35:00,12.6,4.0,30.11,ESE,107,0.0,8.0,68,0.00,,,0.00,Wunderground v.1.15,2013-02-10 03:35:00,
2013-02-09 22:45:00,12.6,4.0,30.12,ENE,75,0.0,8.0,68,0.00,,,0.00,Wunderground v.1.15,2013-02-10 03:45:00,
2013-02-09 22:50:00,12.4,4.5,30.12,SSW,206,0.0,8.0,70,0.00,,,0.00,Wunderground v.1.15,2013-02-10 03:50:00,
2013-02-09 22:55:00,12.4,4.2,30.12,SSE,150,0.0,8.0,69,0.00,,,0.00,Wunderground v.1.15,2013-02-10 03:55:00,
2013-02-09 23:00:00,12.3,3.7,30.13,West,274,0.0,8.0,68,0.00,,,0.00,Wunderground v.1.15,2013-02-10 04:00:00,
2013-02-09 23:10:00,12.3,3.7,30.13,West,278,0.0,8.0,68,0.00,,,0.00,Wunderground v.1.15,2013-02-10 04:10:00,
2013-02-09 23:15:00,12.3,4.4,30.13,SSW,196,0.0,8.0,70,0.00,,,0.00,Wunderground v.1.15,2013-02-10 04:15:00,
2013-02-09 23:20:00,12.3,4.4,30.13,SSW,195,0.0,8.0,70,0.00,,,0.00,Wunderground v.1.15,2013-02-10 04:20:00,
2013-02-09 23:25:00,12.3,3.4,30.13,East,90,0.0,8.0,67,0.00,,,0.00,Wunderground v.1.15,2013-02-10 04:25:00,
2013-02-09 23:30:00,12.4,3.5,30.14,SSW,202,0.0,8.0,67,0.00,,,0.00,Wunderground v.1.15,2013-02-10 04:30:00,
2013-02-09 23:40:00,12.3,4.4,30.14,NW,305,0.0,8.0,70,0.00,,,0.00,Wunderground v.1.15,2013-02-10 04:40:00,
2013-02-09 23:45:00,12.3,4.1,30.14,SE,137,0.0,8.0,69,0.00,,,0.00,Wunderground v.1.15,2013-02-10 04:45:00,
2013-02-09 23:50:00,12.1,3.9,30.14,SW,216,0.0,8.0,69,0.00,,,0.00,Wunderground v.1.15,2013-02-10 04:50:00,
2013-02-09 23:55:00,12.1,3.2,30.14,South,171,0.0,8.0,67,0.00,,,0.00,Wunderground v.1.15,2013-02-10 04:55:00,